Time;durP1;ratioP1;P1;durP2;ratioP2;P2;SDS_P1;SDS_P2;PMS_P1;PMS_P2;Temp;Humidity;BMP_temperature;BMP_pressure;BME280_temperature;BME280_humidity;BME280_pressure;Samples;Min_cycle;Max_cycle;Signal;HPM_P1;HPM_P2
2022/07/31 00:00:14;;;;;;;3.50;2.53;;;22.30;53.50;;;22.11;62.94;100694.94;5028246;28;20045;-77
2022/07/31 00:02:41;;;;;;;4.53;2.47;;;22.20;53.60;;;22.14;60.47;100704.59;5045668;28;20042;-77
2022/07/31 00:05:08;;;;;;;2.95;2.35;;;22.20;53.30;;;22.19;59.41;100697.09;5028952;28;20046;-77
2022/07/31 00:07:36;;;;;;;2.78;2.10;;;22.10;53.10;;;22.11;59.53;100700.28;5030529;28;20037;-77
2022/07/31 00:10:04;;;;;;;3.00;2.38;;;22.10;53.10;;;22.03;61.86;100694.63;5044859;28;20046;-77
2022/07/31 00:12:33;;;;;;;3.47;2.97;;;22.10;53.60;;;22.01;62.34;100694.72;5045092;28;20052;-77
2022/07/31 00:15:06;;;;;;;4.00;2.65;;;22.00;53.70;;;22.01;63.35;100693.84;5044591;28;20051;-77
2022/07/31 00:17:33;;;;;;;5.13;2.40;;;22.00;53.90;;;22.01;63.60;100693.84;5045426;28;20125;-77
2022/07/31 00:20:00;;;;;;;5.07;2.65;;;21.90;54.10;;;21.98;64.16;100696.72;5045047;28;20565;-78
2022/07/31 00:22:28;;;;;;;3.15;2.38;;;21.90;54.10;;;21.89;66.40;100696.41;5045053;28;20068;-78
2022/07/31 00:24:55;;;;;;;2.97;2.38;;;21.90;54.50;;;21.78;67.79;100694.44;5046905;28;20048;-77
2022/07/31 00:27:23;;;;;;;4.85;2.67;;;21.90;54.70;;;21.77;68.93;100690.00;5043683;28;20048;-77
2022/07/31 00:29:50;;;;;;;3.30;2.58;;;21.80;54.90;;;21.63;71.25;100687.38;5047573;28;20080;-78
2022/07/31 00:32:17;;;;;;;5.25;2.28;;;21.80;55.20;;;21.64;70.49;100689.09;5031683;28;20048;-77
2022/07/31 00:34:44;;;;;;;3.47;2.50;;;21.70;55.20;;;21.78;69.93;100685.53;5031334;28;20048;-78
2022/07/31 00:37:11;;;;;;;2.90;2.63;;;21.70;55.30;;;21.68;73.07;100696.00;5031839;28;20047;-78
2022/07/31 00:39:38;;;;;;;4.15;2.55;;;21.70;56.20;;;21.62;74.80;100693.66;5047511;28;20055;-77
2022/07/31 00:42:14;;;;;;;3.40;2.70;;;21.70;56.10;;;21.62;76.37;100691.00;5047557;28;20058;-77
2022/07/31 00:44:41;;;;;;;7.68;2.60;;;21.70;56.30;;;21.60;74.85;100693.78;5048831;28;20040;-78
2022/07/31 00:47:13;;;;;;;7.03;2.25;;;21.50;56.20;;;21.48;78.57;100691.91;5048342;28;20040;-78
2022/07/31 00:49:41;;;;;;;3.13;2.50;;;21.50;56.70;;;21.49;77.55;100686.47;5046929;28;20047;-78
2022/07/31 00:52:08;;;;;;;7.05;2.60;;;21.50;56.60;;;21.46;76.30;100681.28;5038284;28;20037;-78
2022/07/31 00:54:35;;;;;;;3.25;2.40;;;21.50;56.50;;;21.37;77.31;100682.75;5016194;28;20032;-77
2022/07/31 00:57:03;;;;;;;3.65;2.42;;;21.50;56.70;;;21.44;76.66;100675.19;5031552;28;20433;-77
2022/07/31 00:59:30;;;;;;;5.45;2.70;;;21.40;56.60;;;21.40;78.37;100681.69;5048552;28;20091;-77
2022/07/31 01:01:58;;;;;;;2.55;2.15;;;21.40;57.00;;;21.37;78.95;100681.91;5031757;28;20048;-77
2022/07/31 01:04:25;;;;;;;6.38;2.90;;;21.40;57.10;;;21.31;79.73;100682.28;5047410;28;20047;-77
2022/07/31 01:06:54;;;;;;;3.67;2.28;;;20.80;57.00;;;21.30;82.54;100676.09;5047607;28;20075;-77
2022/07/31 01:09:21;;;;;;;2.70;2.00;;;21.30;57.70;;;21.27;83.28;100680.75;5030306;28;20052;-77
2022/07/31 01:12:15;;;;;;;5.07;2.35;;;21.30;57.90;;;21.20;84.90;100675.81;5031069;28;20128;-77
2022/07/31 01:14:55;;;;;;;4.85;2.25;;;21.20;58.20;;;21.21;84.31;100682.88;5047217;28;20045;-78
2022/07/31 01:17:26;;;;;;;5.60;2.22;;;21.30;58.30;;;21.12;84.75;100686.13;5031643;28;20059;-77
2022/07/31 01:19:53;;;;;;;3.50;2.35;;;21.20;58.30;;;21.01;88.71;100689.50;5030878;28;20071;-78
2022/07/31 01:22:56;;;;;;;4.28;2.25;;;21.10;58.80;;;20.97;88.26;100685.31;5044036;28;20046;-77
2022/07/31 01:25:46;;;;;;;5.30;3.47;;;21.00;58.80;;;21.04;86.91;100681.28;5060226;28;20189;-77
2022/07/31 01:28:52;;;;;;;2.72;1.92;;;21.00;58.90;;;20.94;89.25;100685.50;5027171;28;20050;-76
2022/07/31 01:31:56;;;;;;;4.65;2.38;;;21.00;59.50;;;21.01;90.62;100678.78;5060862;28;20041;-77
2022/07/31 01:34:45;;;;;;;3.85;2.95;;;21.00;59.50;;;21.01;88.57;100681.47;5027018;28;20119;-77
2022/07/31 01:37:41;;;;;;;3.55;2.58;;;21.00;59.70;;;20.87;90.87;100682.34;5044785;28;20048;-77
2022/07/31 01:40:15;;;;;;;7.47;2.85;;;20.90;59.80;;;20.90;91.36;100682.16;5008102;28;20152;-78
2022/07/31 01:42:50;;;;;;;4.32;2.40;;;20.90;60.10;;;20.78;91.78;100678.41;5027709;28;20045;-77
2022/07/31 01:45:19;;;;;;;3.50;2.47;;;20.90;60.40;;;20.82;91.32;100679.97;5026477;28;20096;-77
2022/07/31 01:47:47;;;;;;;2.83;2.40;;;20.90;60.40;;;20.79;92.67;100677.44;5027303;28;20043;-77
2022/07/31 01:50:15;;;;;;;3.70;2.40;;;20.90;60.80;;;20.74;92.56;100686.72;5010473;28;20529;-77
2022/07/31 01:53:03;;;;;;;2.83;2.53;;;20.80;60.90;;;20.65;94.83;100674.78;5038260;28;20045;-77
2022/07/31 01:55:33;;;;;;;2.92;2.60;;;21.00;61.50;;;20.68;94.74;100680.78;5010424;28;20123;-77
2022/07/31 01:58:22;;;;;;;3.05;2.55;;;20.70;61.50;;;20.66;94.50;100679.16;5046816;28;20060;-78
2022/07/31 02:00:57;;;;;;;3.92;2.83;;;20.70;61.70;;;20.66;93.15;100674.66;5010639;28;20461;-77
2022/07/31 02:03:27;;;;;;;3.78;2.58;;;20.70;61.70;;;20.50;95.75;100673.88;5027132;28;20037;-78
2022/07/31 02:06:17;;;;;;;6.03;2.72;;;20.60;62.00;;;20.52;92.52;100674.66;5013085;28;20465;-77
2022/07/31 02:08:48;;;;;;;6.65;2.95;;;20.60;61.80;;;20.29;98.13;100665.34;5026522;28;20796;-77
2022/07/31 02:11:18;;;;;;;6.85;2.40;;;20.50;62.70;;;20.30;98.29;100665.28;5027147;28;20038;-78
2022/07/31 02:13:47;;;;;;;4.75;3.05;;;20.40;63.00;;;20.25;98.24;100670.03;5026191;28;20626;-78
2022/07/31 02:16:18;;;;;;;4.63;2.85;;;20.40;63.20;;;20.12;100.00;100665.44;5026993;28;20080;-77
2022/07/31 02:18:51;;;;;;;3.03;2.67;;;20.40;64.00;;;20.05;100.00;100666.72;5010230;28;20513;-76
2022/07/31 02:21:24;;;;;;;3.92;2.85;;;20.20;64.30;;;20.09;100.00;100673.63;5047024;28;20045;-77
2022/07/31 02:23:52;;;;;;;;;;;20.50;64.70;;;20.15;100.00;100674.22;5046625;28;20073;-78
2022/07/31 02:26:20;;;;;;;3.42;2.67;;;20.10;64.50;;;20.08;100.00;100676.38;5046781;28;19925;-77
2022/07/31 02:28:49;;;;;;;2.67;2.42;;;20.10;65.10;;;20.08;100.00;100674.59;5013688;28;20052;-77
2022/07/31 02:31:17;;;;;;;5.78;2.60;;;20.10;65.30;;;19.92;100.00;100676.44;5029838;28;20449;-77
2022/07/31 02:33:48;;;;;;;5.40;3.10;;;20.10;66.40;;;19.95;100.00;100679.78;5028758;28;20516;-77
2022/07/31 02:36:18;;;;;;;3.88;2.78;;;20.00;66.60;;;19.86;100.00;100671.41;5029385;28;20144;-77
2022/07/31 02:38:47;;;;;;;2.95;2.40;;;20.00;67.00;;;19.84;100.00;100674.19;5029070;28;20048;-76
2022/07/31 02:41:16;;;;;;;4.28;2.53;;;19.90;67.30;;;19.77;100.00;100675.47;5030000;28;20052;-77
2022/07/31 02:43:45;;;;;;;5.05;3.08;;;19.90;68.10;;;19.74;100.00;100671.16;5030000;28;20059;-77
2022/07/31 02:46:23;;;;;;;5.65;3.42;;;19.80;68.40;;;19.69;100.00;100665.25;5046326;28;20079;-77
2022/07/31 02:48:51;;;;;;;5.95;2.97;;;19.80;68.50;;;19.68;100.00;100663.53;5029355;28;20040;-78
2022/07/31 02:51:22;;;;;;;3.22;2.90;;;19.80;68.90;;;19.53;100.00;100665.28;5029730;28;20057;-77
2022/07/31 02:53:50;;;;;;;5.38;3.45;;;19.70;69.30;;;19.52;100.00;100663.56;5021612;28;20096;-77
2022/07/31 02:56:18;;;;;;;4.35;3.30;;;19.70;69.70;;;19.61;100.00;100652.34;5026017;28;20498;-76
2022/07/31 02:58:46;;;;;;;4.47;3.17;;;19.70;69.90;;;19.60;100.00;100655.97;5009466;28;20064;-77
2022/07/31 03:01:20;;;;;;;3.40;2.88;;;19.60;70.60;;;19.53;100.00;100658.13;5027239;28;20053;-76
2022/07/31 03:03:49;;;;;;;4.55;3.22;;;19.60;71.20;;;19.37;100.00;100649.25;5027078;28;20041;-77
2022/07/31 03:06:16;;;;;;;4.55;2.90;;;19.60;71.70;;;19.36;100.00;100658.22;5026424;28;20136;-77
2022/07/31 03:08:44;;;;;;;2.60;2.40;;;19.50;72.10;;;19.36;100.00;100653.75;5043171;28;20050;-78
2022/07/31 03:11:15;;;;;;;5.18;3.03;;;19.50;72.40;;;19.40;100.00;100663.31;5013792;28;20053;-77
2022/07/31 03:13:44;;;;;;;2.63;2.42;;;19.50;72.40;;;19.33;100.00;100663.72;5029149;28;20041;-77
2022/07/31 03:16:11;;;;;;;3.55;2.90;;;19.40;73.10;;;19.32;100.00;100657.53;5013483;28;20430;-77
2022/07/31 03:18:40;;;;;;;3.63;2.92;;;19.40;73.10;;;19.24;100.00;100657.94;5030109;28;20103;-77
2022/07/31 03:21:09;;;;;;;3.90;3.00;;;19.40;74.10;;;19.20;100.00;100660.88;5030571;28;20494;-77
2022/07/31 03:23:37;;;;;;;4.00;2.83;;;19.40;74.50;;;19.18;100.00;100660.97;5046335;28;20057;-77
2022/07/31 03:26:10;;;;;;;6.03;3.35;;;19.30;74.80;;;19.10;100.00;100653.41;5013980;28;20041;-77
2022/07/31 03:28:38;;;;;;;5.63;3.58;;;19.30;75.60;;;19.20;100.00;100655.53;5013499;28;20049;-77
2022/07/31 03:31:09;;;;;;;4.28;3.33;;;19.20;75.60;;;19.03;100.00;100648.50;5029696;28;20087;-78
2022/07/31 03:33:36;;;;;;;4.47;3.38;;;19.20;76.80;;;19.07;100.00;100650.91;5029393;28;20465;-78
2022/07/31 03:36:04;;;;;;;5.18;2.90;;;19.20;76.90;;;19.04;100.00;100656.38;5013597;28;20561;-76
2022/07/31 03:38:31;;;;;;;7.10;3.47;;;19.20;77.70;;;19.17;100.00;100659.25;5013551;28;20085;-77
2022/07/31 03:41:17;;;;;;;4.47;3.15;;;19.30;77.60;;;19.12;100.00;100651.50;5015756;28;20048;-77
2022/07/31 03:43:46;;;;;;;4.78;3.53;;;19.20;78.30;;;19.02;100.00;100654.78;5013120;28;20080;-78
2022/07/31 03:46:21;;;;;;;3.63;2.97;;;19.10;79.10;;;19.06;100.00;100657.19;5013978;28;20053;-77
2022/07/31 03:48:50;;;;;;;3.47;2.85;;;19.10;79.40;;;19.07;100.00;100661.56;5012363;28;20679;-77
2022/07/31 03:51:19;;;;;;;3.63;3.22;;;19.10;80.10;;;19.08;100.00;100659.75;5048274;28;20584;-77
2022/07/31 03:53:47;;;;;;;4.75;3.13;;;19.10;80.70;;;19.15;100.00;100666.47;5032150;28;20056;-75
2022/07/31 03:56:55;;;;;;;3.90;3.08;;;19.20;81.40;;;19.21;100.00;100668.81;5045556;28;20045;-77
2022/07/31 03:59:24;;;;;;;6.50;2.92;;;19.20;81.50;;;19.29;100.00;100665.69;5032202;28;20048;-77
2022/07/31 04:01:53;;;;;;;4.00;3.30;;;19.20;81.40;;;19.30;100.00;100663.91;5048598;28;20064;-77
2022/07/31 04:04:43;;;;;;;;;;;19.60;82.00;;;19.31;100.00;100668.31;5049857;28;20060;-77
2022/07/31 04:07:10;;;;;;;3.97;3.38;;;19.30;82.00;;;19.18;100.00;100666.31;5049688;28;19970;-76
2022/07/31 04:09:37;;;;;;;6.45;3.33;;;19.50;82.80;;;19.31;100.00;100671.81;5048663;28;20064;-77
2022/07/31 04:12:05;;;;;;;3.50;2.80;;;19.30;82.30;;;19.31;100.00;100670.97;5049090;28;20395;-77
2022/07/31 04:14:33;;;;;;;6.35;3.22;;;19.30;82.40;;;19.31;100.00;100665.63;5048519;28;20041;-77
2022/07/31 04:17:00;;;;;;;4.22;3.28;;;19.20;82.40;;;19.21;100.00;100668.81;5032182;28;20068;-78
2022/07/31 04:19:30;;;;;;;5.20;3.80;;;19.30;83.30;;;19.24;100.00;100665.09;5031395;28;20045;-77
2022/07/31 04:21:58;;;;;;;4.70;3.30;;;19.30;84.00;;;19.40;100.00;100670.44;5029660;28;20042;-78
2022/07/31 04:24:26;;;;;;;3.17;2.88;;;19.30;84.70;;;19.43;100.00;100670.25;5011891;28;20045;-76
2022/07/31 04:27:05;;;;;;;;;;;19.30;85.00;;;19.48;100.00;100676.22;5014191;28;20145;-77
2022/07/31 04:29:45;;;;;;;3.65;3.20;;;19.30;85.20;;;19.46;100.00;100675.44;5012831;28;19975;-77
2022/07/31 04:32:13;;;;;;;4.45;3.03;;;19.40;85.30;;;19.46;100.00;100675.44;5012367;28;20132;-77
2022/07/31 04:34:51;;;;;;;3.78;3.20;;;19.40;85.30;;;19.37;100.00;100671.47;5013730;28;20041;-76
2022/07/31 04:37:19;;;;;;;4.38;3.00;;;19.40;85.40;;;19.31;100.00;100678.97;5012272;28;20039;-77
2022/07/31 04:39:46;;;;;;;4.20;3.15;;;19.40;85.50;;;19.30;100.00;100671.91;5011663;28;20046;-76
2022/07/31 04:42:14;;;;;;;3.53;2.88;;;19.40;85.60;;;19.33;100.00;100671.72;5012493;28;20395;-77
2022/07/31 04:44:41;;;;;;;3.35;3.00;;;19.40;85.60;;;19.48;100.00;100678.88;5027398;28;20060;-77
2022/07/31 04:47:08;;;;;;;3.33;2.67;;;19.40;85.00;;;19.43;100.00;100683.59;5028541;28;20144;-76
2022/07/31 04:49:40;;;;;;;4.65;3.47;;;19.40;85.20;;;19.39;100.00;100679.38;5011834;28;20049;-77
2022/07/31 04:52:10;;;;;;;3.97;3.58;;;19.40;85.40;;;19.42;100.00;100685.41;5022166;28;20045;-76
2022/07/31 04:54:38;;;;;;;6.22;3.30;;;19.40;85.50;;;19.27;100.00;100687.13;5015588;28;20091;-77
2022/07/31 04:57:07;;;;;;;5.03;3.27;;;19.30;86.00;;;19.45;100.00;100691.53;5045215;28;20049;-77
2022/07/31 04:59:34;;;;;;;4.72;3.25;;;19.30;85.50;;;19.42;100.00;100695.22;5027659;28;20313;-76
2022/07/31 05:02:21;;;;;;;4.55;3.13;;;19.40;85.80;;;19.43;100.00;100691.59;5041998;28;20040;-76
2022/07/31 05:04:48;;;;;;;5.35;3.17;;;19.30;86.20;;;19.43;100.00;100694.25;5023022;28;20540;-76
2022/07/31 05:07:25;;;;;;;4.38;3.28;;;19.40;85.90;;;19.45;100.00;100689.72;5047629;28;20052;-77
2022/07/31 05:09:57;;;;;;;4.18;3.05;;;19.40;86.10;;;19.47;100.00;100689.63;5031791;28;20044;-76
2022/07/31 05:12:24;;;;;;;6.70;3.30;;;19.50;86.10;;;19.38;100.00;100686.53;5021016;28;20037;-76
2022/07/31 05:14:52;;;;;;;3.97;3.00;;;19.40;86.40;;;19.42;100.00;100687.22;5020622;28;20037;-77
2022/07/31 05:17:19;;;;;;;7.85;2.72;;;19.40;86.70;;;19.50;100.00;100690.31;5030505;28;20056;-76
2022/07/31 05:20:05;;;;;;;5.53;2.78;;;19.40;86.40;;;19.64;100.00;100686.00;5027927;28;20528;-77
2022/07/31 05:22:55;;;;;;;3.47;3.00;;;19.50;86.60;;;19.67;100.00;100691.16;5046098;28;20060;-75
2022/07/31 05:25:42;;;;;;;5.43;3.67;;;19.60;86.50;;;19.67;100.00;100688.50;5014775;28;20045;-76
2022/07/31 05:28:09;;;;;;;6.68;3.38;;;19.60;86.40;;;19.75;100.00;100686.25;5047526;28;20059;-76
2022/07/31 05:30:38;;;;;;;5.80;3.13;;;19.60;86.10;;;19.73;100.00;100680.13;5030634;28;20038;-77
2022/07/31 05:33:05;;;;;;;5.10;3.17;;;19.70;86.30;;;19.74;100.00;100686.34;5027574;28;20060;-77
2022/07/31 05:35:32;;;;;;;3.53;3.03;;;19.70;86.50;;;19.82;100.00;100689.41;5027380;28;20033;-76
2022/07/31 05:37:59;;;;;;;4.00;3.00;;;19.80;87.00;;;19.94;100.00;100688.72;5040753;28;20061;-75
2022/07/31 05:40:45;;;;;;;6.43;3.33;;;19.80;87.10;;;20.05;100.00;100688.09;5040511;28;20654;-77
2022/07/31 05:43:37;;;;;;;3.80;2.55;;;19.90;87.30;;;20.18;100.00;100690.91;5032304;28;20045;-76
2022/07/31 05:46:27;;;;;;;5.60;3.15;;;19.90;87.20;;;20.27;100.00;100681.50;5031121;28;20136;-77
2022/07/31 05:48:54;;;;;;;4.28;3.47;;;20.00;86.70;;;20.30;100.00;100678.63;5027412;28;20060;-76
2022/07/31 05:51:22;;;;;;;5.68;3.10;;;20.10;86.80;;;20.35;100.00;100681.03;5011020;28;20045;-76
2022/07/31 05:53:49;;;;;;;3.70;3.10;;;20.30;85.90;;;20.38;100.00;100688.84;5030366;28;20037;-77
2022/07/31 05:56:34;;;;;;;4.68;2.63;;;20.20;86.30;;;20.51;100.00;100680.94;5013214;28;20056;-76
2022/07/31 05:59:01;;;;;;;5.13;3.65;;;20.30;86.20;;;20.56;100.00;100684.22;5010068;28;20088;-76
2022/07/31 06:01:28;;;;;;;4.18;3.00;;;20.40;85.60;;;20.55;100.00;100687.84;5038875;28;20060;-77
2022/07/31 06:03:56;;;;;;;3.42;3.13;;;20.40;85.80;;;20.57;100.00;100685.94;5026611;28;20061;-77
2022/07/31 06:06:29;;;;;;;5.97;3.03;;;20.50;85.40;;;20.61;100.00;100687.47;5026814;28;20134;-75
2022/07/31 06:08:57;;;;;;;3.65;3.30;;;20.50;85.20;;;20.71;100.00;100685.06;5010108;28;20049;-75
2022/07/31 06:11:33;;;;;;;5.63;3.10;;;20.50;85.00;;;20.83;100.00;100686.16;5029974;28;20076;-75
2022/07/31 06:14:00;;;;;;;3.83;3.03;;;20.60;84.60;;;20.77;100.00;100687.38;5010182;28;20145;-75
2022/07/31 06:16:37;;;;;;;5.05;3.08;;;20.60;84.60;;;20.78;100.00;100690.91;5025677;28;20132;-75
2022/07/31 06:19:04;;;;;;;4.40;2.83;;;21.10;84.90;;;20.81;100.00;100685.38;5026635;28;20053;-76
2022/07/31 06:21:31;;;;;;;4.72;2.65;;;20.70;84.50;;;20.90;100.00;100695.53;5012638;28;20045;-79
2022/07/31 06:23:59;;;;;;;5.60;3.08;;;20.70;84.40;;;20.82;100.00;100701.34;5011913;28;20063;-79
2022/07/31 06:26:37;;;;;;;7.28;2.65;;;20.80;84.70;;;20.94;100.00;100694.38;5013603;28;20049;-78
2022/07/31 06:29:06;;;;;;;4.40;2.63;;;20.80;84.30;;;20.83;100.00;100696.84;5012001;28;20038;-78
2022/07/31 06:31:33;;;;;;;3.47;2.78;;;20.90;84.50;;;20.86;100.00;100685.13;5012183;28;20103;-79
2022/07/31 06:34:00;;;;;;;4.57;3.70;;;20.90;84.60;;;21.04;100.00;100691.97;5030551;28;20452;-78
2022/07/31 06:36:36;;;;;;;4.10;3.30;;;21.00;84.40;;;21.07;100.00;100691.81;5011645;28;20568;-80
2022/07/31 06:39:06;;;;;;;;;;;21.00;84.40;;;21.19;100.00;100692.84;5012119;28;20037;-79
2022/07/31 06:41:48;;;;;;;3.92;2.63;;;21.10;84.30;;;21.17;100.00;100696.56;5028699;28;20562;-79
2022/07/31 06:44:38;;;;;;;3.20;2.80;;;21.10;84.60;;;21.16;100.00;100700.19;5021040;28;20140;-78
2022/07/31 06:47:31;;;;;;;5.22;3.00;;;21.10;84.20;;;21.19;100.00;100692.84;5028900;28;20056;-78
2022/07/31 06:50:14;;;;;;;6.05;2.95;;;21.30;84.20;;;21.31;100.00;100701.00;5012237;28;20052;-78
2022/07/31 06:52:52;;;;;;;3.55;2.70;;;21.30;83.50;;;21.43;100.00;100688.69;5011646;28;20128;-78
2022/07/31 06:55:21;;;;;;;3.53;2.75;;;21.30;83.40;;;21.50;100.00;100690.84;5010250;28;20049;-79
2022/07/31 06:57:50;;;;;;;3.40;2.50;;;21.40;83.40;;;21.38;100.00;100691.66;5010999;28;20096;-77
2022/07/31 07:00:17;;;;;;;5.03;3.28;;;21.40;82.80;;;21.57;100.00;100696.66;5039692;28;20049;-77
2022/07/31 07:02:49;;;;;;;5.95;3.25;;;21.40;82.60;;;21.57;100.00;100695.78;5026875;28;20072;-78
2022/07/31 07:05:16;;;;;;;4.22;2.83;;;21.50;82.40;;;21.56;99.59;100703.00;5010310;28;20083;-78
2022/07/31 07:07:46;;;;;;;4.20;2.28;;;21.60;82.20;;;21.75;98.06;100702.66;5010891;28;20069;-78
2022/07/31 07:10:14;;;;;;;3.17;2.67;;;21.60;81.80;;;21.72;97.82;100697.50;5009334;28;20088;-78
2022/07/31 07:13:10;;;;;;;3.35;2.45;;;21.60;81.50;;;21.85;97.74;100697.53;5005272;28;20054;-78
2022/07/31 07:15:37;;;;;;;3.30;2.60;;;21.70;81.80;;;21.94;97.07;100698.78;5009979;28;20565;-79
2022/07/31 07:18:05;;;;;;;4.15;3.17;;;21.70;81.70;;;21.86;98.33;100695.72;5019158;28;20071;-77
2022/07/31 07:20:37;;;;;;;3.78;2.88;;;21.80;81.70;;;21.96;98.74;100696.84;5036272;28;20045;-79
2022/07/31 07:23:05;;;;;;;4.85;2.63;;;21.90;81.60;;;21.92;99.50;100698.84;5039628;28;20622;-77
2022/07/31 07:25:41;;;;;;;3.78;2.50;;;21.90;81.90;;;22.14;98.40;100691.19;5041557;28;20088;-78
2022/07/31 07:28:10;;;;;;;;;;;22.00;81.80;;;22.12;97.75;100683.25;5073425;28;20172;-79
2022/07/31 07:30:55;;;;;;;4.00;2.33;;;22.10;81.50;;;22.31;95.88;100680.19;5029641;28;20448;-79
2022/07/31 07:33:22;;;;;;;3.00;2.47;;;22.20;81.30;;;22.50;96.76;100678.94;5059963;28;20041;-81
2022/07/31 07:36:11;;;;;;;4.18;2.50;;;22.20;81.80;;;22.54;94.07;100685.78;5028350;28;20141;-80
2022/07/31 07:38:54;;;;;;;5.10;2.90;;;22.40;81.30;;;22.60;90.10;100693.44;5014087;28;20581;-79
2022/07/31 07:41:23;;;;;;;5.80;3.03;;;22.40;80.10;;;22.67;87.98;100688.50;5010474;28;20107;-79
2022/07/31 07:43:51;;;;;;;3.47;2.78;;;22.50;79.60;;;22.64;85.31;100694.91;5019754;28;20049;-80
2022/07/31 07:46:22;;;;;;;3.83;2.67;;;22.60;78.70;;;22.97;85.73;100686.41;5025169;28;20127;-79
2022/07/31 07:48:56;;;;;;;3.83;2.85;;;22.70;79.00;;;22.88;82.09;100686.13;5030276;28;20142;-79
2022/07/31 07:51:39;;;;;;;3.38;2.47;;;22.80;78.10;;;22.89;78.40;100685.16;5032167;28;20084;-80
2022/07/31 07:54:38;;;;;;;5.28;2.78;;;22.80;77.30;;;23.04;77.74;100677.81;5036344;28;20183;-80
2022/07/31 07:57:13;;;;;;;3.53;2.88;;;22.80;77.10;;;23.06;76.62;100678.56;5051179;28;20049;-79
2022/07/31 08:00:00;;;;;;;5.25;3.22;;;22.80;76.90;;;23.23;72.27;100671.13;5051333;28;20695;-80
2022/07/31 08:02:47;;;;;;;5.35;2.90;;;23.00;76.00;;;23.23;72.43;100663.06;5051131;28;20056;-80
2022/07/31 08:05:38;;;;;;;5.82;2.80;;;23.10;75.70;;;23.29;68.71;100672.53;5050823;28;20045;-80
2022/07/31 08:08:05;;;;;;;7.72;3.30;;;23.20;74.80;;;23.42;69.56;100664.44;5061302;28;20056;-78
2022/07/31 08:10:48;;;;;;;4.88;2.92;;;23.20;75.00;;;23.44;69.48;100651.75;5046462;28;20045;-78
2022/07/31 08:13:22;;;;;;;3.92;3.03;;;23.30;74.90;;;23.68;68.10;100656.25;5047416;28;20052;-78
2022/07/31 08:16:07;;;;;;;4.75;2.97;;;23.30;74.80;;;23.85;66.14;100655.84;5065663;28;20052;-78
2022/07/31 08:18:43;;;;;;;6.18;2.65;;;23.50;74.30;;;23.89;63.95;100651.97;5065264;28;20041;-78
2022/07/31 08:21:11;;;;;;;6.18;3.00;;;23.70;73.50;;;24.02;63.17;100651.00;5062824;28;20734;-78
2022/07/31 08:23:38;;;;;;;5.10;2.83;;;23.80;73.40;;;24.18;61.30;100646.19;5044277;28;20468;-78
2022/07/31 08:26:09;;;;;;;6.07;2.67;;;23.90;72.80;;;24.28;56.54;100649.06;5044031;28;20048;-78
2022/07/31 08:28:37;;;;;;;2.90;2.60;;;24.00;71.30;;;24.39;53.53;100656.28;5047007;28;20049;-78
2022/07/31 08:31:04;;;;;;;5.30;2.70;;;24.10;70.00;;;24.54;53.59;100656.88;5051615;28;20111;-79
2022/07/31 08:33:38;;;;;;;4.50;2.75;;;24.20;70.20;;;24.57;53.23;100650.44;5012627;28;20524;-78
2022/07/31 08:36:07;;;;;;;3.30;2.35;;;24.30;69.90;;;24.61;55.14;100651.88;5038275;28;20049;-79
2022/07/31 08:38:35;;;;;;;4.63;2.92;;;24.40;70.30;;;24.77;54.52;100655.09;5018380;28;20045;-78
2022/07/31 08:41:21;;;;;;;4.93;2.30;;;24.50;70.20;;;24.83;55.79;100653.75;5030469;28;20529;-79
2022/07/31 08:43:48;;;;;;;5.80;2.45;;;24.60;70.50;;;24.78;56.26;100640.66;5012824;28;20118;-78
2022/07/31 08:46:39;;;;;;;4.10;2.53;;;24.60;70.30;;;25.00;56.80;100652.41;5014953;28;20522;-79
2022/07/31 08:49:08;;;;;;;4.50;2.75;;;24.70;70.70;;;25.02;56.35;100647.75;5028960;28;20107;-79
2022/07/31 08:51:43;;;;;;;4.25;2.20;;;24.80;70.50;;;25.37;56.07;100647.69;5014518;28;20052;-77
2022/07/31 08:54:22;;;;;;;6.70;2.80;;;25.00;70.70;;;25.55;55.27;100645.34;5020267;28;20049;-77
2022/07/31 08:56:51;;;;;;;5.13;2.38;;;25.10;70.50;;;25.57;53.60;100646.06;5020122;28;20060;-76
2022/07/31 08:59:20;;;;;;;4.93;2.42;;;25.20;69.60;;;25.61;52.00;100640.28;5012401;28;20140;-73
2022/07/31 09:01:48;;;;;;;8.55;2.75;;;25.40;68.90;;;25.63;49.73;100634.75;5034820;28;20560;-76
2022/07/31 09:04:16;;;;;;;6.32;2.90;;;25.50;67.60;;;25.71;49.41;100642.19;5020204;28;20045;-74
2022/07/31 09:06:44;;;;;;;5.50;2.75;;;25.50;67.50;;;25.84;48.36;100632.09;5044865;28;20056;-77
2022/07/31 09:09:11;;;;;;;4.03;2.60;;;25.50;67.60;;;25.85;48.79;100635.66;5047353;28;20709;-76
2022/07/31 09:11:54;;;;;;;3.40;2.60;;;25.60;67.10;;;26.09;48.56;100624.63;5015026;28;20152;-76
2022/07/31 09:14:48;;;;;;;3.35;2.30;;;25.70;67.40;;;26.17;46.92;100618.56;5048526;28;20064;-77
2022/07/31 09:17:16;;;;;;;4.07;2.55;;;25.80;66.50;;;26.39;48.06;100628.38;5014611;28;20045;-76
2022/07/31 09:19:44;;;;;;;4.43;2.60;;;25.90;67.30;;;26.63;48.14;100621.81;5048284;28;20485;-77
2022/07/31 09:22:30;;;;;;;4.05;2.67;;;26.10;67.20;;;26.85;47.71;100623.44;5041381;28;20044;-76
2022/07/31 09:25:10;;;;;;;5.45;2.40;;;26.30;67.10;;;27.10;46.35;100607.78;5031255;28;20160;-76
2022/07/31 09:27:42;;;;;;;2.35;1.92;;;26.50;66.60;;;27.40;45.26;100607.81;5032969;28;20075;-80
2022/07/31 09:30:10;;;;;;;3.65;2.28;;;26.80;66.10;;;27.68;44.03;100602.59;5048600;28;20738;-80
2022/07/31 09:33:17;;;;;;;3.35;2.10;;;27.00;65.50;;;27.80;42.97;100606.84;5036214;28;20535;-79
2022/07/31 09:35:59;;;;;;;4.15;2.13;;;27.30;64.80;;;27.82;42.18;100601.28;5035543;28;20065;-82
2022/07/31 09:38:42;;;;;;;4.93;2.33;;;27.40;63.70;;;27.93;41.44;100603.84;5033118;28;20048;-80
2022/07/31 09:41:23;;;;;;;3.47;2.13;;;27.50;63.10;;;27.96;41.48;100606.25;5048252;28;20418;-79
2022/07/31 09:44:14;;;;;;;5.18;2.58;;;27.60;62.80;;;27.99;40.94;100595.13;5021599;28;20625;-79
2022/07/31 09:46:48;;;;;;;2.83;1.80;;;27.70;62.20;;;28.07;40.74;100598.97;5048622;28;20132;-79
2022/07/31 09:49:15;;;;;;;2.50;2.10;;;27.70;62.30;;;28.20;41.26;100599.53;5031223;28;20091;-80
2022/07/31 09:51:47;;;;;;;;;;;27.80;62.50;;;28.25;40.49;100594.53;5017139;28;20054;-79
2022/07/31 09:54:24;;;;;;;4.75;2.20;;;27.90;61.60;;;28.26;40.81;100598.09;5045297;28;20046;-79
2022/07/31 09:57:12;;;;;;;6.50;2.38;;;28.00;61.80;;;28.24;39.62;100586.56;5037336;28;20056;-80
2022/07/31 09:59:43;;;;;;;3.60;2.13;;;28.00;60.70;;;28.27;38.71;100592.53;5032672;28;20052;-78
2022/07/31 10:02:14;;;;;;;3.25;1.85;;;28.00;59.90;;;28.41;38.80;100598.47;5031786;28;20049;-79
2022/07/31 10:04:47;;;;;;;3.30;2.65;;;28.00;59.90;;;28.45;38.75;100594.44;5031499;28;20060;-79
2022/07/31 10:07:17;;;;;;;3.97;1.95;;;28.10;59.80;;;28.63;38.52;100585.53;5063753;28;20053;-81
2022/07/31 10:10:06;;;;;;;3.65;2.22;;;28.40;60.00;;;28.90;38.59;100582.03;5034492;28;20037;-81
2022/07/31 10:12:49;;;;;;;3.17;2.30;;;28.30;59.90;;;29.03;38.07;100565.41;5031087;28;20041;-79
2022/07/31 10:15:18;;;;;;;3.63;2.30;;;28.50;59.50;;;28.94;37.76;100569.00;5016643;28;20048;-77
2022/07/31 10:17:58;;;;;;;4.45;1.83;;;28.60;59.30;;;29.11;38.75;100568.22;5027282;28;20069;-77
2022/07/31 10:20:53;;;;;;;4.32;1.88;;;28.70;59.80;;;29.04;37.45;100574.38;5027450;28;20056;-78
2022/07/31 10:23:44;;;;;;;5.25;1.45;;;28.70;58.70;;;29.07;36.38;100571.38;5033104;28;20169;-78
2022/07/31 10:26:12;;;;;;;4.38;2.20;;;28.80;57.70;;;29.01;37.13;100568.25;5014289;28;20049;-81
2022/07/31 10:28:41;;;;;;;2.90;2.15;;;28.70;58.20;;;28.92;36.86;100565.59;5012114;28;20705;-78
2022/07/31 10:31:11;;;;;;;3.72;1.70;;;28.70;57.70;;;29.22;37.03;100574.38;5010302;28;20064;-76
2022/07/31 10:33:41;;;;;;;2.90;1.50;;;28.70;58.10;;;29.42;37.19;100556.97;5028168;28;20542;-77
2022/07/31 10:36:47;;;;;;;3.47;1.88;;;28.80;58.40;;;29.57;36.57;100557.28;5005132;28;20534;-76